• Join FlightAware (Why Join?)
  • Login
  • US Flag 
07:49PM EST


 

Airport Tracker/Info


-or-


 

Live Flight TrackerFlight Track Log ✈ N137TK ✈ 22-Oct-2013 ✈ KAPF - KNEW

Flight Track Log - Related Links

Times and Time Zones

All times are in EDT time to prevent confusion due to time zone crossing. See the N137TK flight status page for this flight to view local times or setup timezone preferences in your user account.

Time Position Orientation Groundspeed Altitude Reporting Facility
EDT Latitude Longitude Course Direction KTS MPH feet Rate Location/Type
10:52AM 26.0781 -81.8108 297° West 156 180 5,500  Level Miami Center
10:53AM 26.0742 -81.8617 265° West 162 186 7,600 1,980 Climbing Miami Center
10:54AM 26.0722 -81.9147 268° West 167 192 9,500 1,800 Climbing Miami Center
10:55AM 26.0706 -81.9678 268° West 177 204 11,300 1,620 Climbing Miami Center
10:56AM 26.3463 -82.1509 297° West  Level Estimated
10:56AM 26.0833 -82.0192 285° West 177 204 12,800  Level Miami Center
10:57AM 26.1064 -82.0711 296° West 183 211 14,200 1,320 Climbing Miami Center
10:58AM 26.1297 -82.1206 298° West 195 224 15,500 1,320 Climbing Miami Center
10:59AM 26.1528 -82.1747 295° West 195 224 16,900 1,200 Climbing Miami Center
11:00AM 26.1742 -82.2219 297° West 195 224 17,900 1,140 Climbing Miami Center
11:01AM 26.1989 -82.2833 294° West 195 224 19,200 1,200 Climbing Miami Center
11:02AM 26.2222 -82.3331 298° West 195 224 20,300 1,080 Climbing Miami Center
11:03AM 26.2472 -82.3875 297° West 195 224 21,400 1,020 Climbing Miami Center
11:04AM 26.2703 -82.4394 296° West 195 224 22,400 1,020 Climbing Miami Center
11:05AM 26.2953 -82.4961 296° West 195 224 23,500 900 Climbing Miami Center
11:06AM 26.3203 -82.5483 298° West 195 224 24,200 780 Climbing Miami Center
11:07AM 26.3472 -82.6075 297° West 200 230 25,100 840 Climbing Miami Center
11:08AM 26.3681 -82.6594 294° West 200 230 25,900 420 Climbing Miami Center
11:09AM 26.3969 -82.7211 298° West 207 238 26,000  Climbing Miami Center
11:10AM 26.4297 -82.7922 297° West 231 266 26,000  Level Miami Center
11:11AM 26.4603 -82.8611 296° West 248 285 26,000  Level Miami Center
11:12AM 26.4925 -82.9347 296° West 254 292 26,000  Level Miami Center
11:13AM 26.5250 -83.0081 296° West 260 299 26,000  Level Miami Center
11:14AM 26.5572 -83.0819 296° West 266 306 26,000  Level Miami Center
11:15AM 26.5917 -83.1556 298° West 260 299 26,000  Level Miami Center
11:16AM 26.6239 -83.2317 295° West 265 305 26,000  Level Miami Center
11:17AM 26.6522 -83.2981 296° West 256 295 26,000  Level Miami Center
11:18AM 26.6883 -83.3767 297° West 262 302 26,000  Level Miami Center
11:19AM 26.7206 -83.4506 296° West 262 302 26,000  Level Miami Center
11:20AM 26.7525 -83.5244 296° West 262 302 26,000  Level Miami Center
11:21AM 26.7847 -83.5958 297° West 262 302 26,000  Level Miami Center
11:22AM 26.8167 -83.6722 295° West 262 302 26,000  Level Miami Center
11:23AM 26.8508 -83.7439 298° West 262 302 26,000  Level Miami Center
11:24AM 26.8786 -83.8178 293° West 262 302 26,000  Level Miami Center
11:25AM 26.9128 -83.8894 298° West 262 302 26,000  Level Miami Center
11:26AM 26.9447 -83.9614 296° West 262 302 26,000  Level Miami Center
11:27AM 26.9744 -84.0353 294° West 262 302 26,000  Level Miami Center
11:28AM 27.0103 -84.1097 298° West 257 296 26,000  Level Miami Center
11:29AM 27.0358 -84.1811 292° West 262 302 26,000  Level Miami Center
11:30AM 27.0697 -84.2553 297° West 262 302 26,000  Level Miami Center
11:31AM 27.0994 -84.3250 296° West 262 302 26,000  Level Miami Center
11:32AM 27.1311 -84.3992 296° West 263 303 26,000  Level Miami Center
11:33AM 27.1606 -84.4733 294° West 257 296 26,000  Level Miami Center
11:34AM 27.1942 -84.5456 298° West 263 303 26,000  Level Miami Center
11:35AM 27.2236 -84.6197 294° West 263 303 26,000  Level Miami Center
11:36AM 27.2592 -84.6922 299° West 263 303 26,000  Level Miami Center
11:37AM 27.2925 -84.7692 296° West 263 303 26,000  Level Miami Center
11:39AM 27.3642 -84.9294 297° West 264 304 26,000  Level Jacksonville Center
11:40AM 27.3881 -85.0025 290° West 259 298 26,000  Level Jacksonville Center
11:41AM 27.4181 -85.0661 298° West 268 308 26,000  Level Jacksonville Center
11:42AM 27.4481 -85.1417 294° West 258 297 26,000  Level Jacksonville Center
11:43AM 27.4781 -85.2147 295° West 258 297 26,000  Level Jacksonville Center
11:44AM 27.5081 -85.2925 294° West 258 297 26,000  Level Jacksonville Center
11:45AM 27.5403 -85.3564 300° West 267 307 26,000  Level Jacksonville Center
11:46AM 27.5700 -85.4297 295° West 254 292 26,000  Level Jacksonville Center
11:47AM 27.5997 -85.5100 293° West 264 304 26,000  Level Jacksonville Center
11:48AM 27.6297 -85.5786 296° West 256 295 26,000  Level Jacksonville Center
11:49AM 27.6614 -85.6497 297° West 256 295 26,000  Level Jacksonville Center
11:50AM 27.6914 -85.7139 298° West 255 293 26,000  Level Jacksonville Center
11:51AM 27.7211 -85.7897 294° West 253 291 26,000  Level Jacksonville Center
11:52AM 27.7506 -85.8608 295° West 258 297 26,000  Level Jacksonville Center
11:53AM 27.7803 -85.9367 294° West 244 281 26,000  Level Jacksonville Center
11:54AM 27.8097 -86.0081 295° West 249 287 26,000  Level Jacksonville Center
11:55AM 27.8433 -86.0842 297° West 257 296 26,000  Level Jacksonville Center
11:56AM 27.8708 -86.1531 294° West 251 289 26,000  Level Jacksonville Center
11:57AM 27.9022 -86.2292 295° West 256 295 26,000  Level Jacksonville Center
11:58AM 27.9336 -86.3053 295° West 256 295 26,000  Level Jacksonville Center
11:59AM 27.9611 -86.3719 295° West 254 292 26,000  Level Jacksonville Center
12:00PM 27.9922 -86.4483 295° West 254 292 26,000  Level Jacksonville Center
12:01PM 28.0233 -86.5294 294° West 268 308 26,000  Level Jacksonville Center
12:02PM 28.0489 -86.5867 297° West 247 284 26,000  Level Jacksonville Center
12:03PM 28.0822 -86.6656 296° West 248 285 26,000  Level Jacksonville Center
12:04PM 28.1133 -86.7419 295° West 255 293 26,000  Level Jacksonville Center
12:05PM 28.1383 -86.8089 293° West 248 285 26,000  Level Jacksonville Center
12:06PM 28.1694 -86.8806 296° West 254 292 26,000  Level Jacksonville Center
12:07PM 28.1964 -86.9522 293° West 249 287 26,000  Level Jacksonville Center
12:08PM 28.2294 -87.0289 296° West 257 296 26,000  Level Jacksonville Center
12:09PM 28.2561 -87.1056 292° West 249 287 26,000  Level Jacksonville Center
12:10PM 28.2658 -87.1272 297° West 254 292 26,000  Level Houston Center
12:11PM 28.3011 -87.2153 294° West 255 293 26,000  Level Houston Center
12:12PM 28.3314 -87.2889 295° West 257 296 26,000  Level Houston Center
12:13PM 28.3592 -87.3597 294° West 252 290 26,000  Level Houston Center
12:14PM 28.3869 -87.4322 294° West 252 290 26,000  Level Houston Center
12:15PM 28.4161 -87.5033 295° West 248 285 26,000  Level Houston Center
12:16PM 28.4489 -87.5875 294° West 243 280 26,000  Level Houston Center
12:17PM 28.4761 -87.6572 294° West 241 277 26,000  Level Houston Center
12:18PM 28.5039 -87.7264 295° West 241 277 26,000  Level Houston Center
12:19PM 28.5319 -87.7964 295° West 242 278 26,000  Level Houston Center
12:20PM 28.5622 -87.8769 293° West 245 282 26,000  Level Houston Center
12:21PM 28.5869 -87.9383 295° West 245 282 26,000  Level Houston Center
12:22PM 28.6197 -88.0214 294° West 240 276 26,000  Level Houston Center
12:23PM 28.6575 -88.0928 301° West 250 288 26,000  Level Houston Center
12:24PM 28.6978 -88.1564 306° West 250 288 26,000  Level Houston Center
12:25PM 28.7403 -88.2211 307° West 254 292 26,000  Level Houston Center
12:26PM 28.7808 -88.2875 305° West 254 292 26,000  Level Houston Center
12:27PM 28.8222 -88.3517 306° West 253 291 26,000  Level Houston Center
12:28PM 28.8633 -88.4161 306° West 252 290 26,000  Level Houston Center
12:30PM 28.9122 -88.4939 306° West 253 291 26,000  Level Houston Center
12:31PM 28.9539 -88.5594 306° West 255 293 26,000  Level Houston Center
12:32PM 28.9947 -88.6242 306° West 251 289 26,000  Level Houston Center
12:33PM 29.0356 -88.6881 306° West 251 289 26,000  Level Houston Center
12:34PM 29.0750 -88.7508 306° West 246 283 26,000  Level Houston Center
12:35PM 29.1150 -88.8147 306° West 246 283 26,000  Level Houston Center
12:36PM 29.1619 -88.8894 306° West 242 278 26,000 -300 Level Houston Center
12:37PM 29.2019 -88.9525 306° West 244 281 25,400 -1,020 Descending Houston Center
12:38PM 29.2464 -89.0256 305° West 274 315 24,000 -1,380 Descending Houston Center
12:39PM 29.2911 -89.0972 306° West 278 320 22,600 -1,380 Descending Houston Center
12:40PM 29.3344 -89.1656 306° West 268 308 21,200 -1,380 Descending Houston Center
12:41PM 29.3756 -89.2361 304° West 266 306 19,800 -1,500 Descending Houston Center
12:42PM 29.4289 -89.3192 306° West 268 308 18,100 -1,500 Descending Houston Center
12:43PM 29.4731 -89.3903 306° West 271 312 16,800 -1,320 Descending Houston Center
12:44PM 29.5014 -89.4342 307° West 277 319 16,000 -1,380 Descending Houston Center
12:44PM 29.5169 -89.4625 302° West 275 316 15,400 -1,380 Descending Houston Center
12:45PM 29.5617 -89.5347 305° West 277 319 14,000 -1,320 Descending Houston Center
12:46PM 29.6011 -89.5969 306° West 262 302 12,900 -1,260 Descending Houston Center
12:46PM 29.6036 -89.6017 301° West 266 306 12,700 -1,260 Descending Houston Center
12:47PM 29.6478 -89.6633 310° West 255 293 11,400 -1,500 Descending Houston Center
12:48PM 29.6953 -89.7194 314° West 246 283 10,000 -1,800 Descending Houston Center
12:48PM 29.7044 -89.7306 314° West 246 283 9,600 -1,560 Descending Houston Center
12:49PM 29.7367 -89.7678 315° West 234 269 8,600 -1,500 Descending Houston Center
12:49PM 29.7497 -89.7839 313° West 239 275 8,100 -1,500 Descending Houston Center
12:50PM 29.7803 -89.8208 314° West 227 261 7,100 -1,500 Descending Houston Center
12:50PM 29.7931 -89.8356 315° West 230 265 6,600 -1,380 Descending Houston Center
12:51PM 29.8131 -89.8603 313° West 227 261 6,000 -1,500 Descending Houston Center
12:51PM 29.8367 -89.8886 314° West 227 261 5,100 -1,680 Descending Houston Center
12:52PM 29.8675 -89.9250 314° West 230 265 4,000 -1,500 Descending Houston Center
12:52PM 29.8800 -89.9408 312° West 226 260 3,600 -1,200 Descending Houston Center
12:53PM 29.9089 -89.9758 314° West 220 253 2,800 -1,080 Descending Houston Center
12:53PM 29.9211 -89.9914 312° West 222 255 2,500 -900 Descending Houston Center
12:54PM 29.9522 -90.0244 317° Northwest 200 230 1,900 -840 Descending Houston Center
12:54PM 29.9619 -90.0283 341° North 205 236 1,700 -720 Descending Houston Center
12:55PM 29.9942 -90.0300 357° North 139 160 1,200 -900 Descending Houston Center
12:55PM 30.0114 -90.0297 North 162 186 800 -900 Descending Houston Center
12:56PM 30.0297 -90.0308 357° North 110 127 300 -240 Descending Houston Center
12:57PM 30.0061 -89.9681 113° Southeast 91 105 500 240 Climbing Houston Center
12:59PM 30.0333 -90.0167 North  Level FlightAware Approximate
01:06PM 30.0424 -90.0283 North  Level Estimated